createdAt,value
2017-09-29T00:02:21.030Z,14.35
2017-09-29T00:04:49.345Z,14.39
2017-09-29T00:07:17.663Z,14.39
2017-09-29T00:09:45.999Z,14.36
2017-09-29T00:12:14.327Z,14.36
2017-09-29T00:14:42.670Z,14.33
2017-09-29T00:17:11.755Z,14.33
2017-09-29T00:19:40.084Z,14.30
2017-09-29T00:22:08.406Z,14.30
2017-09-29T00:24:36.720Z,14.30
2017-09-29T00:27:05.282Z,14.24
2017-09-29T00:29:34.355Z,14.20
2017-09-29T00:32:02.673Z,14.28
2017-09-29T00:34:31.759Z,14.35
2017-09-29T00:37:00.832Z,14.37
2017-09-29T00:39:29.162Z,14.36
2017-09-29T00:41:57.477Z,14.34
2017-09-29T00:44:25.798Z,14.36
2017-09-29T00:46:54.117Z,14.32
2017-09-29T00:49:22.449Z,14.38
2017-09-29T00:51:51.586Z,14.43
2017-09-29T00:54:19.890Z,14.34
2017-09-29T00:56:48.199Z,14.46
2017-09-29T00:59:17.321Z,14.45
2017-09-29T01:01:45.633Z,14.41
2017-09-29T01:04:13.967Z,14.39
2017-09-29T01:06:42.295Z,14.46
2017-09-29T01:09:10.630Z,14.49
2017-09-29T01:11:38.965Z,14.49
2017-09-29T01:14:08.076Z,14.51
2017-09-29T01:16:37.190Z,14.49
2017-09-29T01:19:05.501Z,14.41
2017-09-29T01:21:33.811Z,14.39
2017-09-29T01:24:02.127Z,14.41
2017-09-29T01:26:30.452Z,14.41
2017-09-29T01:28:58.846Z,14.37
2017-09-29T01:31:27.932Z,14.36
2017-09-29T01:33:56.239Z,14.35
2017-09-29T01:36:24.578Z,14.28
2017-09-29T01:38:52.885Z,14.31
2017-09-29T01:41:22.021Z,14.25
2017-09-29T01:43:50.344Z,14.20
2017-09-29T01:46:18.672Z,14.15
2017-09-29T01:48:47.016Z,14.08
2017-09-29T01:51:16.106Z,14.03
2017-09-29T01:53:45.221Z,14.00
2017-09-29T01:56:13.533Z,13.92
2017-09-29T01:58:41.855Z,13.91
2017-09-29T02:01:10.955Z,13.88
2017-09-29T02:03:40.039Z,13.90
2017-09-29T02:06:09.148Z,13.92
2017-09-29T02:08:38.236Z,14.00
2017-09-29T02:11:07.334Z,14.05
2017-09-29T02:13:36.461Z,14.07
2017-09-29T02:16:04.762Z,14.09
2017-09-29T02:18:33.110Z,14.07
2017-09-29T02:21:01.417Z,13.98
2017-09-29T02:23:29.735Z,13.91
2017-09-29T02:25:58.869Z,13.89
2017-09-29T02:28:27.178Z,13.89
2017-09-29T02:30:55.522Z,13.88
2017-09-29T02:33:23.830Z,13.90
2017-09-29T02:35:52.138Z,13.88
2017-09-29T02:38:21.234Z,13.85
2017-09-29T02:40:50.310Z,13.76
2017-09-29T02:43:18.646Z,13.73
2017-09-29T02:45:46.951Z,13.80
2017-09-29T02:48:15.258Z,13.83
2017-09-29T02:50:43.571Z,13.86
2017-09-29T02:53:11.881Z,13.92
2017-09-29T02:55:40.231Z,13.97
2017-09-29T02:58:11.137Z,13.96
2017-09-29T03:00:42.045Z,13.92
2017-09-29T03:03:13.678Z,13.91
2017-09-29T03:05:44.369Z,13.91
2017-09-29T03:08:13.475Z,13.89
2017-09-29T03:10:41.784Z,13.88
2017-09-29T03:13:10.103Z,13.89
2017-09-29T03:15:38.408Z,13.86
2017-09-29T03:18:06.755Z,13.84
2017-09-29T03:20:35.065Z,13.86
2017-09-29T03:23:03.376Z,13.85
2017-09-29T03:25:31.701Z,13.70
2017-09-29T03:28:00.769Z,13.65
2017-09-29T03:30:29.106Z,13.71
2017-09-29T03:32:57.421Z,13.73
2017-09-29T03:35:25.729Z,13.74
2017-09-29T03:37:54.818Z,13.73
2017-09-29T03:40:23.902Z,13.64
2017-09-29T03:42:52.249Z,13.71
2017-09-29T03:45:20.558Z,13.80
2017-09-29T03:47:48.869Z,13.82
2017-09-29T03:50:19.395Z,13.85
2017-09-29T03:52:49.253Z,13.88
2017-09-29T03:55:20.538Z,13.92
2017-09-29T03:57:51.306Z,13.99
2017-09-29T04:00:19.631Z,13.99
2017-09-29T04:02:47.935Z,14.08
2017-09-29T04:05:17.042Z,14.08
2017-09-29T04:07:45.421Z,14.16
2017-09-29T04:10:14.484Z,14.15
2017-09-29T04:12:42.801Z,14.17
2017-09-29T04:15:11.107Z,14.27
2017-09-29T04:17:39.446Z,14.33
2017-09-29T04:20:07.769Z,14.36
2017-09-29T04:22:36.084Z,14.35
2017-09-29T04:25:05.194Z,14.40
2017-09-29T04:27:33.513Z,14.45
2017-09-29T04:30:01.889Z,14.48
2017-09-29T04:32:30.202Z,14.48
2017-09-29T04:34:58.534Z,14.52
2017-09-29T04:37:26.865Z,14.49
2017-09-29T04:39:55.945Z,14.54
2017-09-29T04:42:24.364Z,14.54
2017-09-29T04:44:52.677Z,14.51
2017-09-29T04:47:21.019Z,14.58
2017-09-29T04:49:49.401Z,14.57
2017-09-29T04:52:17.730Z,14.56
2017-09-29T04:54:46.115Z,14.48
2017-09-29T04:57:14.430Z,14.52
2017-09-29T04:59:42.762Z,14.58
2017-09-29T05:02:11.074Z,14.61
2017-09-29T05:04:40.197Z,14.51
2017-09-29T05:07:08.542Z,14.60
2017-09-29T05:09:37.616Z,14.59
2017-09-29T05:12:05.914Z,14.50
2017-09-29T05:14:34.986Z,14.54
2017-09-29T05:17:03.290Z,14.60
2017-09-29T05:19:32.394Z,14.64
2017-09-29T05:22:01.471Z,14.61
2017-09-29T05:24:30.550Z,14.66
2017-09-29T05:26:58.865Z,14.68
2017-09-29T05:29:27.169Z,14.68
2017-09-29T05:31:55.505Z,14.75
2017-09-29T05:34:24.569Z,14.76
2017-09-29T05:36:52.874Z,14.83
2017-09-29T05:39:22.004Z,14.87
2017-09-29T05:41:50.310Z,14.91
2017-09-29T05:44:18.641Z,15.01
2017-09-29T05:46:46.948Z,15.04
2017-09-29T05:49:15.253Z,15.09
2017-09-29T05:51:43.673Z,15.16
2017-09-29T05:54:11.981Z,15.21
2017-09-29T05:56:40.339Z,15.31
2017-09-29T05:59:08.644Z,15.37
2017-09-29T06:01:36.957Z,15.46
2017-09-29T06:04:05.269Z,15.56
2017-09-29T06:06:33.589Z,15.66
2017-09-29T06:09:01.953Z,15.83
2017-09-29T06:11:30.267Z,15.93
2017-09-29T06:13:58.586Z,15.99
2017-09-29T06:16:26.901Z,16.08
2017-09-29T06:18:55.210Z,16.10
2017-09-29T06:21:24.305Z,16.24
2017-09-29T06:23:53.381Z,16.28
2017-09-29T06:26:21.685Z,16.40
2017-09-29T06:28:50.765Z,16.48
2017-09-29T06:31:19.078Z,16.59
2017-09-29T06:33:47.420Z,16.70
2017-09-29T06:36:15.730Z,17.12
2017-09-29T06:38:44.038Z,17.27
2017-09-29T06:41:12.350Z,17.33
2017-09-29T06:43:40.662Z,17.34
2017-09-29T06:46:08.991Z,17.35
2017-09-29T06:48:37.295Z,17.56
2017-09-29T06:51:06.365Z,17.49
2017-09-29T06:53:34.690Z,17.60
2017-09-29T06:56:02.999Z,18.00
2017-09-29T06:58:31.334Z,18.24
2017-09-29T07:00:59.644Z,18.25
2017-09-29T07:03:27.954Z,18.24
2017-09-29T07:05:56.274Z,18.22
2017-09-29T07:08:24.582Z,18.08
2017-09-29T07:10:52.922Z,17.90
2017-09-29T07:13:21.243Z,18.13
2017-09-29T07:15:49.545Z,18.01
2017-09-29T07:18:17.857Z,18.04
2017-09-29T07:20:46.166Z,18.26
2017-09-29T07:23:15.280Z,18.18
2017-09-29T07:25:43.918Z,18.61
2017-09-29T07:28:13.641Z,18.84
2017-09-29T07:30:42.417Z,19.13
2017-09-29T07:33:10.721Z,19.11
2017-09-29T07:35:39.060Z,19.22
2017-09-29T07:38:08.133Z,19.48
2017-09-29T07:40:36.437Z,19.65
2017-09-29T07:43:04.756Z,19.50
2017-09-29T07:45:33.065Z,19.51
2017-09-29T07:48:01.407Z,19.76
2017-09-29T07:50:29.731Z,20.05
2017-09-29T07:52:58.805Z,20.62
2017-09-29T07:55:27.131Z,20.38
2017-09-29T07:57:55.438Z,20.39
2017-09-29T08:00:23.770Z,20.64
2017-09-29T08:02:52.082Z,20.86
2017-09-29T08:05:20.389Z,20.95
2017-09-29T08:07:48.701Z,21.65
2017-09-29T08:10:17.769Z,21.82
2017-09-29T08:12:46.105Z,22.09
2017-09-29T08:15:14.414Z,21.81
2017-09-29T08:17:42.729Z,22.01
2017-09-29T08:20:11.040Z,21.95
2017-09-29T08:22:39.342Z,22.35
2017-09-29T08:25:07.689Z,22.49
2017-09-29T08:27:35.999Z,22.74
2017-09-29T08:30:04.301Z,22.38
2017-09-29T08:32:33.395Z,22.95
2017-09-29T08:35:02.486Z,22.92
2017-09-29T08:37:31.601Z,22.72
2017-09-29T08:39:59.906Z,22.91
2017-09-29T08:42:28.218Z,22.66
2017-09-29T08:44:56.533Z,22.32
2017-09-29T08:47:25.609Z,22.23
2017-09-29T08:49:53.945Z,22.16
2017-09-29T08:52:22.250Z,21.83
2017-09-29T08:54:50.549Z,22.16
2017-09-29T08:57:19.635Z,22.16
2017-09-29T08:59:48.709Z,22.26
2017-09-29T09:02:17.056Z,22.14
2017-09-29T09:04:45.365Z,22.20
2017-09-29T09:07:13.694Z,22.38
2017-09-29T09:09:42.005Z,22.39
2017-09-29T09:12:10.378Z,22.53
2017-09-29T09:14:39.050Z,22.62
2017-09-29T09:17:08.193Z,22.91
2017-09-29T09:19:36.501Z,23.60
2017-09-29T09:22:04.814Z,26.02
2017-09-29T09:24:33.116Z,28.72
2017-09-29T09:27:01.450Z,30.76
2017-09-29T09:29:29.759Z,31.04
2017-09-29T09:31:58.061Z,30.99
2017-09-29T09:34:27.160Z,31.94
2017-09-29T09:36:56.255Z,31.90
2017-09-29T09:39:24.598Z,32.14
2017-09-29T09:41:52.893Z,32.48
2017-09-29T09:44:21.233Z,30.45
2017-09-29T09:46:49.545Z,30.94
2017-09-29T09:49:17.861Z,30.56
2017-09-29T09:51:46.956Z,31.46
2017-09-29T09:54:16.025Z,32.33
2017-09-29T09:56:44.351Z,30.53
2017-09-29T09:59:12.661Z,31.48
2017-09-29T10:01:40.993Z,29.38
2017-09-29T10:04:09.322Z,30.91
2017-09-29T10:06:37.630Z,29.97
2017-09-29T10:09:06.702Z,31.17
2017-09-29T10:11:35.021Z,29.44
2017-09-29T10:14:03.322Z,30.22
2017-09-29T10:16:31.681Z,29.53
2017-09-29T10:18:59.976Z,29.47
2017-09-29T10:21:28.277Z,29.00
2017-09-29T10:23:57.358Z,28.86
2017-09-29T10:26:25.660Z,28.51
2017-09-29T10:28:54.002Z,28.81
2017-09-29T10:31:22.318Z,28.77
2017-09-29T10:33:51.411Z,29.50
2017-09-29T10:36:19.732Z,29.50
2017-09-29T10:38:48.050Z,29.55
2017-09-29T10:41:16.386Z,29.95
2017-09-29T10:43:44.680Z,28.85
2017-09-29T10:46:12.980Z,28.36
2017-09-29T10:48:41.289Z,28.89
2017-09-29T10:51:10.360Z,28.43
2017-09-29T10:53:38.702Z,28.70
2017-09-29T10:56:07.005Z,27.99
2017-09-29T10:58:35.358Z,28.16
2017-09-29T11:01:03.672Z,27.78
2017-09-29T11:03:31.981Z,27.75
2017-09-29T11:06:01.093Z,27.22
2017-09-29T11:08:29.430Z,26.70
2017-09-29T11:10:57.739Z,26.46
2017-09-29T11:13:26.821Z,25.22
2017-09-29T11:15:55.896Z,24.39
2017-09-29T11:18:24.234Z,24.34
2017-09-29T11:20:52.533Z,24.71
2017-09-29T11:23:20.838Z,24.60
2017-09-29T11:25:49.156Z,24.89
2017-09-29T11:28:17.473Z,25.04
2017-09-29T11:30:45.819Z,25.18
2017-09-29T11:33:14.130Z,25.22
2017-09-29T11:35:42.453Z,25.58
2017-09-29T11:38:10.769Z,26.19
2017-09-29T11:40:39.078Z,25.79
2017-09-29T11:43:07.415Z,25.60
2017-09-29T11:45:35.714Z,25.09
2017-09-29T11:48:04.022Z,25.03
2017-09-29T11:50:33.098Z,25.12
2017-09-29T11:53:01.410Z,24.94
2017-09-29T11:55:29.754Z,25.06
2017-09-29T11:57:58.069Z,25.00
2017-09-29T12:00:26.375Z,25.20
2017-09-29T12:02:54.689Z,25.18
2017-09-29T12:05:22.993Z,25.16
2017-09-29T12:07:52.097Z,25.25
2017-09-29T12:10:20.405Z,25.37
2017-09-29T12:12:48.710Z,25.18
2017-09-29T12:15:17.032Z,25.44
2017-09-29T12:17:45.334Z,25.53
2017-09-29T12:20:13.674Z,25.56
2017-09-29T12:22:42.740Z,25.63
2017-09-29T12:25:11.060Z,25.76
2017-09-29T12:27:39.389Z,25.87
2017-09-29T12:30:07.729Z,26.32
2017-09-29T12:32:36.082Z,25.90
2017-09-29T12:35:05.161Z,26.11
2017-09-29T12:37:34.237Z,26.57
2017-09-29T12:40:02.553Z,26.65
2017-09-29T12:42:30.867Z,26.07
2017-09-29T12:44:59.223Z,26.15
2017-09-29T12:47:27.531Z,26.34
2017-09-29T12:49:55.854Z,26.25
2017-09-29T12:52:24.939Z,25.69
2017-09-29T12:54:53.253Z,26.32
2017-09-29T12:57:21.590Z,26.51
2017-09-29T12:59:49.913Z,26.02
2017-09-29T13:02:18.234Z,26.30
2017-09-29T13:04:46.557Z,26.56
2017-09-29T13:07:14.866Z,26.40
2017-09-29T13:09:43.970Z,26.59
2017-09-29T13:12:12.282Z,25.98
2017-09-29T13:14:41.349Z,26.00
2017-09-29T13:17:09.660Z,26.21
2017-09-29T13:19:38.733Z,26.26
2017-09-29T13:22:07.067Z,26.13
2017-09-29T13:24:35.405Z,26.21
2017-09-29T13:27:04.478Z,25.80
2017-09-29T13:29:32.794Z,26.22
2017-09-29T13:32:01.096Z,26.00
2017-09-29T13:34:29.445Z,26.20
2017-09-29T13:36:57.756Z,26.12
2017-09-29T13:39:26.068Z,26.49
2017-09-29T13:41:54.377Z,26.36
2017-09-29T13:44:22.687Z,25.98
2017-09-29T13:46:51.020Z,26.15
2017-09-29T13:49:20.354Z,26.22
2017-09-29T13:51:48.669Z,26.23
2017-09-29T13:54:18.493Z,26.01
2017-09-29T13:56:46.799Z,26.12
2017-09-29T13:59:15.148Z,26.01
2017-09-29T14:01:43.472Z,25.52
2017-09-29T14:04:11.777Z,25.71
2017-09-29T14:06:40.090Z,25.55
2017-09-29T14:09:09.167Z,25.43
2017-09-29T14:11:37.502Z,25.60
2017-09-29T14:14:05.805Z,25.69
2017-09-29T14:16:34.105Z,25.59
2017-09-29T14:19:02.422Z,25.22
2017-09-29T14:21:30.732Z,25.20
2017-09-29T14:23:59.065Z,25.01
2017-09-29T14:26:28.129Z,25.07
2017-09-29T14:28:56.440Z,24.88
2017-09-29T14:31:24.752Z,25.10
2017-09-29T14:33:53.843Z,25.34
2017-09-29T14:36:22.173Z,25.55
2017-09-29T14:38:51.242Z,25.54
2017-09-29T14:41:19.548Z,25.35
2017-09-29T14:43:48.632Z,25.35
2017-09-29T14:46:16.942Z,25.48
2017-09-29T14:48:45.278Z,25.34
2017-09-29T14:51:13.582Z,25.23
2017-09-29T14:53:42.681Z,24.94
2017-09-29T14:56:11.009Z,24.96
2017-09-29T14:58:39.311Z,25.04
2017-09-29T15:01:07.649Z,24.91
2017-09-29T15:03:35.965Z,24.80
2017-09-29T15:06:04.269Z,24.86
2017-09-29T15:08:33.348Z,24.77
2017-09-29T15:11:02.432Z,24.73
2017-09-29T15:13:30.812Z,24.71
2017-09-29T15:15:59.105Z,24.76
2017-09-29T15:18:28.169Z,24.50
2017-09-29T15:20:56.492Z,24.14
2017-09-29T15:23:24.802Z,23.96
2017-09-29T15:25:53.142Z,23.85
2017-09-29T15:28:21.461Z,23.64
2017-09-29T15:30:49.759Z,23.80
2017-09-29T15:33:18.065Z,23.79
2017-09-29T15:35:47.141Z,23.48
2017-09-29T15:38:15.468Z,23.32
2017-09-29T15:40:43.776Z,23.20
2017-09-29T15:43:12.077Z,23.25
2017-09-29T15:45:40.395Z,23.09
2017-09-29T15:48:08.704Z,22.97
2017-09-29T15:50:37.044Z,22.84
2017-09-29T15:53:05.349Z,22.76
2017-09-29T15:55:34.416Z,22.65
2017-09-29T15:58:02.731Z,22.56
2017-09-29T16:00:31.046Z,22.49
2017-09-29T16:03:00.153Z,22.35
2017-09-29T16:05:29.220Z,22.29
2017-09-29T16:07:57.525Z,22.28
2017-09-29T16:10:26.609Z,22.20
2017-09-29T16:12:55.992Z,22.12
2017-09-29T16:15:24.334Z,22.06
2017-09-29T16:17:52.632Z,21.99
2017-09-29T16:20:20.940Z,21.88
2017-09-29T16:22:50.033Z,21.78
2017-09-29T16:25:18.334Z,21.67
2017-09-29T16:27:46.675Z,21.63
2017-09-29T16:30:14.981Z,21.54
2017-09-29T16:32:44.061Z,21.43
2017-09-29T16:35:13.145Z,21.35
2017-09-29T16:37:41.474Z,21.27
2017-09-29T16:40:09.822Z,21.16
2017-09-29T16:42:38.948Z,21.05
2017-09-29T16:45:07.284Z,21.00
2017-09-29T16:47:35.597Z,20.87
2017-09-29T16:50:03.919Z,20.74
2017-09-29T16:52:32.242Z,20.66
2017-09-29T16:55:00.582Z,20.55
2017-09-29T16:57:28.910Z,20.44
2017-09-29T16:59:57.233Z,20.35
2017-09-29T17:02:25.573Z,20.24
2017-09-29T17:04:53.890Z,20.18
2017-09-29T17:07:22.197Z,20.09
2017-09-29T17:09:51.272Z,19.99
2017-09-29T17:12:19.578Z,19.92
2017-09-29T17:14:47.896Z,19.87
2017-09-29T17:17:16.193Z,19.80
2017-09-29T17:19:44.508Z,19.75
2017-09-29T17:22:12.812Z,19.74
2017-09-29T17:24:41.133Z,19.66
2017-09-29T17:27:09.438Z,19.57
2017-09-29T17:29:37.789Z,19.53
2017-09-29T17:32:06.128Z,19.45
2017-09-29T17:34:34.430Z,19.41
2017-09-29T17:37:02.747Z,19.42
2017-09-29T17:39:31.082Z,19.34
2017-09-29T17:41:59.433Z,19.29
2017-09-29T17:44:27.742Z,19.22
2017-09-29T17:46:56.056Z,19.16
2017-09-29T17:49:24.377Z,19.10
2017-09-29T17:51:52.689Z,19.06
2017-09-29T17:54:21.006Z,19.00
2017-09-29T17:56:49.321Z,18.96
2017-09-29T17:59:17.637Z,18.89
2017-09-29T18:01:46.720Z,18.89
2017-09-29T18:04:15.042Z,18.90
2017-09-29T18:06:43.345Z,19.06
2017-09-29T18:09:11.677Z,18.93
2017-09-29T18:11:39.984Z,18.84
2017-09-29T18:14:08.296Z,18.79
2017-09-29T18:16:36.625Z,18.76
2017-09-29T18:19:04.937Z,18.73
2017-09-29T18:21:34.066Z,18.70
2017-09-29T18:24:03.136Z,18.69
2017-09-29T18:26:31.481Z,18.64
2017-09-29T18:28:59.789Z,18.62
2017-09-29T18:31:28.102Z,18.58
2017-09-29T18:33:56.443Z,18.63
2017-09-29T18:36:24.750Z,18.56
2017-09-29T18:38:53.830Z,18.60
2017-09-29T18:41:34.638Z,18.69
2017-09-29T18:47:07.793Z,18.79
2017-09-29T18:49:36.110Z,18.69
2017-09-29T18:52:05.203Z,18.73
2017-09-29T18:54:34.303Z,18.55
2017-09-29T18:57:02.609Z,18.42
2017-09-29T18:59:30.921Z,18.34
2017-09-29T19:01:59.233Z,18.29
2017-09-29T19:04:27.567Z,18.32
2017-09-29T19:06:55.903Z,18.22
2017-09-29T19:09:24.210Z,18.16
2017-09-29T19:11:52.525Z,18.10
2017-09-29T19:14:21.600Z,18.08
2017-09-29T19:16:49.937Z,18.05
2017-09-29T19:19:18.242Z,18.01
2017-09-29T19:21:46.572Z,17.96
2017-09-29T19:24:14.901Z,17.98
2017-09-29T19:26:43.218Z,17.95
2017-09-29T19:29:12.309Z,17.91
2017-09-29T19:31:40.639Z,17.87
2017-09-29T19:34:08.964Z,17.85
2017-09-29T19:36:38.029Z,17.79
2017-09-29T19:39:06.377Z,17.73
2017-09-29T19:41:34.724Z,17.65
2017-09-29T19:44:03.068Z,17.63
2017-09-29T19:46:31.388Z,17.59
2017-09-29T19:48:59.700Z,17.49
2017-09-29T19:51:28.025Z,17.44
2017-09-29T19:53:57.102Z,17.39
2017-09-29T19:56:25.430Z,17.34
2017-09-29T19:58:53.753Z,17.29
2017-09-29T20:01:22.090Z,17.27
2017-09-29T20:03:50.394Z,17.22
2017-09-29T20:06:18.747Z,17.19
2017-09-29T20:08:47.065Z,17.14
2017-09-29T20:11:15.379Z,17.11
2017-09-29T20:13:43.736Z,17.08
2017-09-29T20:16:12.054Z,17.06
2017-09-29T20:18:40.368Z,17.01
2017-09-29T20:21:08.688Z,17.01
2017-09-29T20:23:37.014Z,17.04
2017-09-29T20:26:05.317Z,17.02
2017-09-29T20:28:33.647Z,16.96
2017-09-29T20:31:01.949Z,16.92
2017-09-29T20:33:30.280Z,16.89
2017-09-29T20:35:58.593Z,16.88
2017-09-29T20:38:26.947Z,16.91
2017-09-29T20:40:55.269Z,16.88
2017-09-29T20:43:23.565Z,16.85
2017-09-29T20:45:51.873Z,16.82
2017-09-29T20:48:20.185Z,16.78
2017-09-29T20:50:48.514Z,16.75
2017-09-29T20:53:16.822Z,16.72
2017-09-29T20:55:45.142Z,16.69
2017-09-29T20:58:13.457Z,16.59
2017-09-29T21:00:41.778Z,16.57
2017-09-29T21:03:10.117Z,16.51
2017-09-29T21:05:38.438Z,16.46
2017-09-29T21:08:06.757Z,16.40
2017-09-29T21:10:35.834Z,16.36
2017-09-29T21:13:04.911Z,16.28
2017-09-29T21:15:33.223Z,16.24
2017-09-29T21:18:01.565Z,16.20
2017-09-29T21:20:29.873Z,16.16
2017-09-29T21:22:58.196Z,16.16
2017-09-29T21:25:26.501Z,16.13
2017-09-29T21:27:54.835Z,16.09
2017-09-29T21:30:23.149Z,16.04
2017-09-29T21:32:51.477Z,15.98
2017-09-29T21:35:19.794Z,15.93
2017-09-29T21:37:48.114Z,15.87
2017-09-29T21:40:17.208Z,15.81
2017-09-29T21:42:46.301Z,15.75
2017-09-29T21:45:15.377Z,15.69
2017-09-29T21:47:43.735Z,15.66
2017-09-29T21:50:12.045Z,15.62
2017-09-29T21:52:41.120Z,15.60
2017-09-29T21:55:09.441Z,15.56
2017-09-29T21:57:37.765Z,15.54
2017-09-29T22:00:06.093Z,15.54
2017-09-29T22:02:34.417Z,15.50
2017-09-29T22:05:02.752Z,15.54
2017-09-29T22:07:31.064Z,15.52
2017-09-29T22:09:59.390Z,15.47
2017-09-29T22:12:28.469Z,15.45
2017-09-29T22:14:56.800Z,15.37
2017-09-29T22:17:25.108Z,15.21
2017-09-29T22:19:53.461Z,15.12
2017-09-29T22:22:21.791Z,15.04
2017-09-29T22:24:50.865Z,14.94
2017-09-29T22:27:19.194Z,14.85
2017-09-29T22:29:47.504Z,14.82
2017-09-29T22:32:15.832Z,14.81
2017-09-29T22:34:44.909Z,14.79
2017-09-29T22:37:14.005Z,14.80
2017-09-29T22:39:42.329Z,14.78
2017-09-29T22:42:10.653Z,14.80
2017-09-29T22:44:38.969Z,14.83
2017-09-29T22:47:08.010Z,14.82
2017-09-29T22:49:36.336Z,14.83
2017-09-29T22:52:04.645Z,14.81
2017-09-29T22:54:32.956Z,14.81
2017-09-29T22:57:01.267Z,14.81
2017-09-29T22:59:29.588Z,14.79
2017-09-29T23:01:57.898Z,14.77
2017-09-29T23:04:27.016Z,14.78
2017-09-29T23:06:55.330Z,14.75
2017-09-29T23:09:23.657Z,14.77
2017-09-29T23:11:52.732Z,14.72
2017-09-29T23:14:21.053Z,14.69
2017-09-29T23:16:49.365Z,14.66
2017-09-29T23:19:17.714Z,14.66
2017-09-29T23:21:46.018Z,14.64
2017-09-29T23:24:14.368Z,14.63
2017-09-29T23:26:42.698Z,14.61
2017-09-29T23:29:11.797Z,14.62
2017-09-29T23:31:40.120Z,14.62
2017-09-29T23:34:08.444Z,14.61
2017-09-29T23:36:36.765Z,14.59
2017-09-29T23:39:05.073Z,14.59
2017-09-29T23:41:33.421Z,14.57
2017-09-29T23:44:01.746Z,14.57
2017-09-29T23:46:30.065Z,14.53
2017-09-29T23:48:59.154Z,14.52
2017-09-29T23:51:28.232Z,14.49
2017-09-29T23:53:56.564Z,14.49
2017-09-29T23:56:24.892Z,14.50
2017-09-29T23:58:53.254Z,14.45
